Time;durP1;ratioP1;P1;durP2;ratioP2;P2;SDS_P1;SDS_P2;PMS_P1;PMS_P2;Temp;Humidity;BMP_temperature;BMP_pressure;BME280_temperature;BME280_humidity;BME280_pressure;Samples;Min_cycle;Max_cycle;Signal;HPM_P1;HPM_P2
2021/01/20 00:00:01;;;;;;;5.18;2.45;;;12.70;99.90;;;;;;5137929;27;20455;-87
2021/01/20 00:02:31;;;;;;;6.72;2.45;;;12.60;99.90;;;;;;5163143;27;20063;-87
2021/01/20 00:05:00;;;;;;;3.25;2.33;;;12.60;99.90;;;;;;5139490;27;20654;-86
2021/01/20 00:07:28;;;;;;;2.90;2.28;;;12.70;99.90;;;;;;5129666;27;20055;-87
2021/01/20 00:09:56;;;;;;;4.03;2.40;;;12.60;99.90;;;;;;5134879;27;20064;-87
2021/01/20 00:12:24;;;;;;;2.85;2.58;;;12.50;99.90;;;;;;5144265;27;20435;-86
2021/01/20 00:14:53;;;;;;;4.57;2.50;;;12.40;99.90;;;;;;5144969;27;20024;-87
2021/01/20 00:17:21;;;;;;;3.25;2.45;;;12.40;99.90;;;;;;5143432;27;20051;-88
2021/01/20 00:19:50;;;;;;;4.10;2.22;;;12.40;99.90;;;;;;5140344;27;20435;-88
2021/01/20 00:22:18;;;;;;;4.95;2.00;;;12.20;99.90;;;;;;5147472;27;20075;-87
2021/01/20 00:24:47;;;;;;;4.43;2.10;;;12.30;99.90;;;;;;5180562;27;20434;-88
2021/01/20 00:27:16;;;;;;;3.60;2.03;;;12.10;99.90;;;;;;5160533;27;20061;-87
2021/01/20 00:29:45;;;;;;;3.78;2.80;;;12.10;99.90;;;;;;5178097;27;20043;-87
2021/01/20 00:32:13;;;;;;;4.15;2.40;;;11.90;99.90;;;;;;5164965;27;20047;-87
2021/01/20 00:34:41;;;;;;;2.78;2.10;;;11.90;99.90;;;;;;5185670;27;20038;-87
2021/01/20 00:37:10;;;;;;;6.07;2.28;;;11.90;99.90;;;;;;5180045;27;20063;-88
2021/01/20 00:39:38;;;;;;;4.18;2.55;;;11.80;99.90;;;;;;5181277;27;20405;-87
2021/01/20 00:42:06;;;;;;;3.60;2.28;;;11.80;99.90;;;;;;5179465;27;20055;-88
2021/01/20 00:44:35;;;;;;;4.32;2.10;;;11.70;99.90;;;;;;5182829;27;20034;-86
2021/01/20 00:47:03;;;;;;;2.95;2.20;;;11.70;99.90;;;;;;5178273;27;20047;-88
2021/01/20 00:49:32;;;;;;;3.83;2.40;;;11.70;99.90;;;;;;5173353;27;20038;-86
2021/01/20 00:51:59;;;;;;;6.72;2.58;;;11.60;99.90;;;;;;5182923;27;20038;-88
2021/01/20 00:54:27;;;;;;;8.23;2.60;;;11.60;99.90;;;;;;5167681;27;20029;-87
2021/01/20 00:56:56;;;;;;;4.85;2.40;;;11.70;99.90;;;;;;5181570;27;20077;-88
2021/01/20 00:59:24;;;;;;;3.42;2.30;;;11.70;99.90;;;;;;5165033;27;20077;-87
2021/01/20 01:01:57;;;;;;;4.65;2.72;;;11.60;99.90;;;;;;5184264;27;20397;-88
2021/01/20 01:04:27;;;;;;;;;;;11.70;99.90;;;;;;5180382;27;20347;-87
2021/01/20 01:06:55;;;;;;;4.03;2.40;;;11.60;99.90;;;;;;5140161;27;19970;-87
2021/01/20 01:09:23;;;;;;;4.68;2.67;;;11.50;99.90;;;;;;5164957;27;20305;-87
2021/01/20 01:11:52;;;;;;;3.87;2.37;;;11.50;99.90;;;;;;5185480;27;20436;-87
2021/01/20 01:14:20;;;;;;;3.87;2.50;;;11.40;99.90;;;;;;5184366;27;20379;-87
2021/01/20 01:16:49;;;;;;;3.97;2.42;;;11.40;99.90;;;;;;5166489;27;20109;-88
2021/01/20 01:19:19;;;;;;;5.85;2.40;;;11.40;99.90;;;;;;5155356;27;20101;-88
2021/01/20 01:21:47;;;;;;;4.90;2.37;;;11.40;99.90;;;;;;5172140;27;20047;-88
2021/01/20 01:24:15;;;;;;;3.55;2.47;;;11.40;99.90;;;;;;5170359;27;20509;-88
2021/01/20 01:26:44;;;;;;;4.15;2.47;;;11.40;99.90;;;;;;5171354;27;20050;-87
2021/01/20 01:29:14;;;;;;;3.95;2.45;;;11.40;99.90;;;;;;5177475;27;20474;-87
2021/01/20 01:31:43;;;;;;;8.05;2.87;;;11.30;99.90;;;;;;5182976;27;20031;-87
2021/01/20 01:34:12;;;;;;;3.85;2.37;;;11.30;99.90;;;;;;5185646;27;20397;-87
2021/01/20 01:36:40;;;;;;;3.70;2.50;;;11.30;99.90;;;;;;5180143;27;20050;-88
2021/01/20 01:39:09;;;;;;;4.43;2.70;;;11.30;99.90;;;;;;5176207;27;20078;-87
2021/01/20 01:41:38;;;;;;;5.28;3.00;;;11.50;99.90;;;;;;5183856;27;20426;-88
2021/01/20 01:44:06;;;;;;;3.97;2.35;;;11.50;99.90;;;;;;5185824;27;20039;-87
2021/01/20 01:46:35;;;;;;;5.07;3.30;;;11.50;99.90;;;;;;5186476;27;20496;-87
2021/01/20 01:49:04;;;;;;;4.70;2.70;;;11.40;99.90;;;;;;5186091;27;20037;-88
2021/01/20 01:51:33;;;;;;;5.45;2.80;;;11.40;99.90;;;;;;5184985;27;20552;-87
2021/01/20 01:54:06;;;;;;;6.30;2.90;;;11.40;99.90;;;;;;5188899;27;20438;-88
2021/01/20 01:56:33;;;;;;;5.45;2.87;;;11.50;99.90;;;;;;5183206;27;20445;-87
2021/01/20 01:59:02;;;;;;;7.28;3.12;;;11.50;99.90;;;;;;5178517;27;20058;-86
2021/01/20 02:01:31;;;;;;;5.93;2.70;;;11.50;99.90;;;;;;5162194;27;20023;-86
2021/01/20 02:03:59;;;;;;;3.60;2.70;;;11.40;99.90;;;;;;5186603;27;20043;-86
2021/01/20 02:06:30;;;;;;;6.82;3.20;;;11.40;99.90;;;;;;5187016;27;20308;-87
2021/01/20 02:08:59;;;;;;;4.30;2.60;;;11.30;99.90;;;;;;5178192;27;20039;-86
2021/01/20 02:11:36;;;;;;;4.95;2.78;;;11.30;99.90;;;;;;5186675;27;20068;-87
2021/01/20 02:14:26;;;;;;;4.35;2.80;;;11.30;99.90;;;;;;5169603;27;20059;-87
2021/01/20 02:17:21;;;;;;;7.07;2.80;;;11.10;99.90;;;;;;5182480;27;20419;-88
2021/01/20 02:19:55;;;;;;;4.50;2.90;;;11.00;99.90;;;;;;5184107;27;20110;-87
2021/01/20 02:22:35;;;;;;;4.45;2.87;;;11.00;99.90;;;;;;5186143;27;20059;-87
2021/01/20 02:25:11;;;;;;;4.70;2.53;;;10.90;99.90;;;;;;5139868;27;20026;-88
2021/01/20 02:28:13;;;;;;;3.05;2.53;;;11.00;99.90;;;;;;5138475;27;20040;-87
2021/01/20 02:30:44;;;;;;;3.85;3.00;;;11.00;99.90;;;;;;5144684;27;20450;-87
2021/01/20 02:33:25;;;;;;;7.87;3.33;;;10.80;99.90;;;;;;5144636;27;20036;-88
2021/01/20 02:36:00;;;;;;;5.00;3.00;;;10.70;99.90;;;;;;5137603;27;20059;-87
2021/01/20 02:38:33;;;;;;;3.97;2.50;;;10.50;99.90;;;;;;5138303;27;20024;-87
2021/01/20 02:41:01;;;;;;;3.90;2.60;;;10.60;99.90;;;;;;5146403;27;20030;-87
2021/01/20 02:43:30;;;;;;;5.05;3.28;;;10.40;99.90;;;;;;5150795;27;20065;-87
2021/01/20 02:46:02;;;;;;;5.72;3.42;;;10.40;99.90;;;;;;5134763;27;20050;-87
2021/01/20 02:48:31;;;;;;;5.80;2.70;;;10.30;99.90;;;;;;5141706;27;20422;-88
2021/01/20 02:51:00;;;;;;;5.40;3.15;;;10.40;99.90;;;;;;5142410;27;20059;-87
2021/01/20 02:53:30;;;;;;;8.57;3.00;;;10.50;99.90;;;;;;5147514;27;20027;-87
2021/01/20 02:56:08;;;;;;;7.95;3.60;;;10.50;99.90;;;;;;5136255;27;20032;-87
2021/01/20 02:58:43;;;;;;;6.07;3.00;;;10.50;99.90;;;;;;5141776;27;20044;-86
2021/01/20 03:01:15;;;;;;;5.72;3.08;;;10.60;99.90;;;;;;5144914;27;20027;-86
2021/01/20 03:03:46;;;;;;;4.60;3.40;;;10.60;99.90;;;;;;5143064;27;20038;-87
2021/01/20 03:06:17;;;;;;;5.12;3.08;;;10.80;99.90;;;;;;5140356;27;20019;-87
2021/01/20 03:08:45;;;;;;;5.50;2.90;;;10.90;99.90;;;;;;5143569;27;20042;-87
2021/01/20 03:11:12;;;;;;;7.47;3.50;;;11.00;99.90;;;;;;5139764;27;20071;-87
2021/01/20 03:13:41;;;;;;;4.87;3.37;;;11.00;99.90;;;;;;5149913;27;20034;-88
2021/01/20 03:16:12;;;;;;;3.42;2.80;;;11.00;99.90;;;;;;5149199;27;20050;-88
2021/01/20 03:18:40;;;;;;;3.47;3.17;;;10.90;99.90;;;;;;5167160;27;20542;-90
2021/01/20 03:21:31;;;;;;;7.32;3.50;;;10.80;99.90;;;;;;5149378;27;20003;-91
2021/01/20 03:23:58;;;;;;;5.85;3.62;;;10.80;99.90;;;;;;5161731;27;20073;-87
2021/01/20 03:26:26;;;;;;;4.45;2.67;;;10.70;99.90;;;;;;5160008;27;20087;-87
2021/01/20 03:28:54;;;;;;;8.07;3.58;;;10.70;99.90;;;;;;5163039;27;20482;-88
2021/01/20 03:31:22;;;;;;;4.50;3.20;;;10.70;99.90;;;;;;5160748;27;20460;-87
2021/01/20 03:33:50;;;;;;;6.78;3.40;;;10.70;99.90;;;;;;5162393;27;20034;-87
2021/01/20 03:36:17;;;;;;;8.75;3.28;;;10.70;99.90;;;;;;5163250;27;20059;-87
2021/01/20 03:38:45;;;;;;;9.18;3.67;;;10.80;99.90;;;;;;5165747;27;20027;-87
2021/01/20 03:41:12;;;;;;;5.28;3.10;;;10.80;99.90;;;;;;5163547;27;20035;-88
2021/01/20 03:43:40;;;;;;;4.18;2.80;;;10.80;99.90;;;;;;5161358;27;20041;-87
2021/01/20 03:46:08;;;;;;;4.43;2.92;;;10.80;99.90;;;;;;5140652;27;20031;-87
2021/01/20 03:48:35;;;;;;;6.15;3.05;;;10.70;99.90;;;;;;5161331;27;20422;-88
2021/01/20 03:51:04;;;;;;;3.78;2.80;;;10.70;99.90;;;;;;5163710;27;20411;-87
2021/01/20 03:53:32;;;;;;;5.55;3.33;;;10.70;99.90;;;;;;5141997;27;20371;-87
2021/01/20 03:55:59;;;;;;;6.22;3.33;;;10.70;99.90;;;;;;5161651;27;20435;-87
2021/01/20 03:58:26;;;;;;;6.97;2.90;;;10.70;99.90;;;;;;5141891;27;20492;-88
2021/01/20 04:00:54;;;;;;;4.90;3.12;;;10.70;99.90;;;;;;5125310;27;20662;-88
2021/01/20 04:03:23;;;;;;;5.12;2.90;;;10.70;99.90;;;;;;5141714;27;20027;-87
2021/01/20 04:05:54;;;;;;;9.73;3.17;;;10.70;99.90;;;;;;5167453;27;20066;-87
2021/01/20 04:08:21;;;;;;;5.55;2.92;;;10.60;99.90;;;;;;5142819;27;20056;-87
2021/01/20 04:10:50;;;;;;;4.32;3.35;;;10.70;99.90;;;;;;5162979;27;20122;-87
2021/01/20 04:13:17;;;;;;;4.37;2.85;;;10.70;99.90;;;;;;5159609;27;20032;-86
2021/01/20 04:15:45;;;;;;;7.18;3.40;;;10.70;99.90;;;;;;5142646;27;20028;-88
2021/01/20 04:18:14;;;;;;;7.68;3.30;;;10.80;99.90;;;;;;5162046;27;20394;-88
2021/01/20 04:20:42;;;;;;;3.67;2.95;;;10.80;99.90;;;;;;5142411;27;20043;-87
2021/01/20 04:23:09;;;;;;;4.43;2.80;;;10.80;99.90;;;;;;5161037;27;20062;-87
2021/01/20 04:25:38;;;;;;;5.68;3.25;;;10.80;99.90;;;;;;5160602;27;20069;-87
2021/01/20 04:28:05;;;;;;;5.60;3.00;;;10.80;99.90;;;;;;5158449;27;20058;-87
2021/01/20 04:30:33;;;;;;;4.18;3.33;;;10.90;99.90;;;;;;5142890;27;20106;-87
2021/01/20 04:33:01;;;;;;;4.70;3.40;;;10.80;99.90;;;;;;5159917;27;20105;-87
2021/01/20 04:35:30;;;;;;;4.57;3.28;;;10.80;99.90;;;;;;5159946;27;20031;-87
2021/01/20 04:37:58;;;;;;;5.15;2.85;;;10.90;99.90;;;;;;5159337;27;20061;-87
2021/01/20 04:40:26;;;;;;;5.85;2.97;;;10.80;99.90;;;;;;5161262;27;20050;-87
2021/01/20 04:42:55;;;;;;;4.25;3.37;;;10.90;99.90;;;;;;5159472;27;20130;-87
2021/01/20 04:45:23;;;;;;;4.45;3.10;;;10.90;99.90;;;;;;5141152;27;20379;-87
2021/01/20 04:47:53;;;;;;;4.37;3.12;;;10.90;99.90;;;;;;5134811;27;20055;-88
2021/01/20 04:50:22;;;;;;;10.57;3.65;;;10.80;99.90;;;;;;5153590;27;20028;-88
2021/01/20 04:52:52;;;;;;;7.25;3.42;;;10.80;99.90;;;;;;5140106;27;20042;-87
2021/01/20 04:55:20;;;;;;;5.00;3.28;;;10.80;99.90;;;;;;5161609;27;20087;-88
2021/01/20 04:57:48;;;;;;;5.05;2.97;;;10.80;99.90;;;;;;5140274;27;20462;-87
2021/01/20 05:00:17;;;;;;;7.62;3.33;;;10.70;99.90;;;;;;5160705;27;20446;-87
2021/01/20 05:02:46;;;;;;;6.12;3.45;;;10.70;99.90;;;;;;5156932;27;20050;-86
2021/01/20 05:05:15;;;;;;;6.18;2.97;;;10.60;99.90;;;;;;5160929;27;20551;-87
2021/01/20 05:07:43;;;;;;;10.82;4.47;;;10.60;99.90;;;;;;5140409;27;20442;-87
2021/01/20 05:10:13;;;;;;;8.25;3.28;;;10.60;99.90;;;;;;5141155;27;20516;-87
2021/01/20 05:12:43;;;;;;;5.68;3.45;;;10.60;99.90;;;;;;5160311;27;20030;-87
2021/01/20 05:15:15;;;;;;;4.50;2.97;;;10.60;99.90;;;;;;5144205;27;20050;-87
2021/01/20 05:17:57;;;;;;;5.18;3.25;;;10.60;99.90;;;;;;5159894;27;20055;-87
2021/01/20 05:20:34;;;;;;;6.80;3.62;;;10.50;99.90;;;;;;5161364;27;20024;-86
2021/01/20 05:23:06;;;;;;;5.35;3.33;;;10.50;99.90;;;;;;5165212;27;20028;-87
2021/01/20 05:25:43;;;;;;;8.63;3.72;;;10.50;99.90;;;;;;5143464;27;20062;-87
2021/01/20 05:28:27;;;;;;;8.07;3.90;;;10.50;99.90;;;;;;5140335;27;20042;-87
2021/01/20 05:30:56;;;;;;;7.75;3.75;;;10.50;99.90;;;;;;5162638;27;20019;-87
2021/01/20 05:33:27;;;;;;;5.78;2.87;;;10.40;99.90;;;;;;5161004;27;20070;-87
2021/01/20 05:36:12;;;;;;;3.50;3.20;;;10.40;99.90;;;;;;5160741;27;20547;-87
2021/01/20 05:38:41;;;;;;;;;;;10.50;99.90;;;;;;5160722;27;20020;-88
2021/01/20 05:41:21;;;;;;;4.47;3.10;;;10.50;99.90;;;;;;5161987;27;19965;-87
2021/01/20 05:43:54;;;;;;;5.00;2.87;;;10.60;99.90;;;;;;5139517;27;20031;-87
2021/01/20 05:46:33;;;;;;;8.27;3.40;;;10.60;99.90;;;;;;5162209;27;20028;-88
2021/01/20 05:49:02;;;;;;;4.95;2.87;;;10.60;99.90;;;;;;5158912;27;20019;-87
2021/01/20 05:51:43;;;;;;;6.18;3.20;;;10.60;99.90;;;;;;5142847;27;20410;-88
2021/01/20 05:54:13;;;;;;;6.68;3.30;;;10.50;99.90;;;;;;5159331;27;20338;-86
2021/01/20 05:56:41;;;;;;;4.60;3.10;;;10.50;99.90;;;;;;5160016;27;20054;-88
2021/01/20 05:59:24;;;;;;;5.10;3.03;;;10.50;99.90;;;;;;5159417;27;20101;-87
2021/01/20 06:01:53;;;;;;;5.82;3.33;;;10.50;99.90;;;;;;5161046;27;20023;-86
2021/01/20 06:04:22;;;;;;;5.07;3.22;;;10.60;99.90;;;;;;5141305;27;20463;-87
2021/01/20 06:06:53;;;;;;;4.97;3.40;;;10.60;99.90;;;;;;5160694;27;20367;-87
2021/01/20 06:09:24;;;;;;;6.85;3.03;;;10.70;99.90;;;;;;5159883;27;20322;-88
2021/01/20 06:11:52;;;;;;;5.28;3.22;;;10.80;99.90;;;;;;5161334;27;20337;-87
2021/01/20 06:14:20;;;;;;;6.70;3.37;;;10.70;99.90;;;;;;5163851;27;20359;-87
2021/01/20 06:16:53;;;;;;;4.43;3.17;;;10.80;99.90;;;;;;5161436;27;20035;-88
2021/01/20 06:19:23;;;;;;;4.18;2.92;;;10.70;99.90;;;;;;5144635;27;20051;-87
2021/01/20 06:21:54;;;;;;;4.12;3.20;;;10.70;99.90;;;;;;5147055;27;20046;-87
2021/01/20 06:24:47;;;;;;;5.30;3.05;;;10.70;99.90;;;;;;5158832;27;20055;-87
2021/01/20 06:27:35;;;;;;;9.77;3.30;;;10.70;99.90;;;;;;5160801;27;20019;-88
2021/01/20 06:30:30;;;;;;;4.90;3.22;;;10.70;99.90;;;;;;5141077;27;20034;-87
2021/01/20 06:33:04;;;;;;;4.27;3.30;;;10.70;99.90;;;;;;5161167;27;20070;-87
2021/01/20 06:35:50;;;;;;;5.78;3.60;;;10.70;99.90;;;;;;5159464;27;20058;-88
2021/01/20 06:38:35;;;;;;;6.72;3.87;;;10.70;99.90;;;;;;5160609;27;20034;-87
2021/01/20 06:41:12;;;;;;;5.10;3.45;;;10.80;99.90;;;;;;5159143;27;20036;-87
2021/01/20 06:43:41;;;;;;;6.80;3.62;;;10.80;99.90;;;;;;5155878;27;20035;-87
2021/01/20 06:46:20;;;;;;;7.07;4.37;;;10.80;99.90;;;;;;5140187;27;20086;-87
2021/01/20 06:48:55;;;;;;;7.87;3.92;;;10.80;99.90;;;;;;5154025;27;20078;-87
2021/01/20 06:51:28;;;;;;;6.10;3.50;;;10.80;99.90;;;;;;5155696;27;20394;-87
2021/01/20 06:54:10;;;;;;;5.30;3.90;;;10.80;99.90;;;;;;5123086;27;20480;-88
2021/01/20 06:56:46;;;;;;;7.95;3.67;;;10.80;99.90;;;;;;5140381;27;20470;-87
2021/01/20 06:59:18;;;;;;;6.55;3.97;;;10.80;99.90;;;;;;5161986;27;20078;-87
2021/01/20 07:02:02;;;;;;;5.00;3.55;;;10.70;99.90;;;;;;5139665;27;20038;-88
2021/01/20 07:04:39;;;;;;;6.60;3.60;;;10.70;99.90;;;;;;5164909;27;20024;-88
2021/01/20 07:07:09;;;;;;;7.85;3.60;;;10.70;99.90;;;;;;5142432;27;20073;-88
2021/01/20 07:09:50;;;;;;;6.45;3.42;;;10.70;99.90;;;;;;5162328;27;20045;-88
2021/01/20 07:12:22;;;;;;;5.28;3.92;;;10.70;99.90;;;;;;5160967;27;20529;-88
2021/01/20 07:14:55;;;;;;;7.55;4.10;;;10.70;99.90;;;;;;5124624;27;20055;-86
2021/01/20 07:17:23;;;;;;;4.85;3.65;;;10.70;99.90;;;;;;5162045;27;20031;-88
2021/01/20 07:19:52;;;;;;;5.78;3.62;;;10.70;99.90;;;;;;5143118;27;20430;-87
2021/01/20 07:22:20;;;;;;;6.37;4.30;;;10.70;99.90;;;;;;5140860;27;20043;-87
2021/01/20 07:24:48;;;;;;;8.70;4.18;;;10.70;99.90;;;;;;5138462;27;20062;-87
2021/01/20 07:27:18;;;;;;;6.78;4.30;;;10.70;99.90;;;;;;5142462;27;20024;-87
2021/01/20 07:29:47;;;;;;;6.57;4.45;;;10.70;99.90;;;;;;5142879;27;20027;-88
2021/01/20 07:32:15;;;;;;;9.30;4.37;;;10.60;99.90;;;;;;5139854;27;20039;-87
2021/01/20 07:34:44;;;;;;;5.87;4.12;;;10.60;99.90;;;;;;5139368;27;20074;-86
2021/01/20 07:37:13;;;;;;;7.82;3.97;;;10.70;99.90;;;;;;5142083;27;20031;-87
2021/01/20 07:39:43;;;;;;;7.37;4.40;;;10.70;99.90;;;;;;5138130;27;20043;-88
2021/01/20 07:42:11;;;;;;;8.93;4.78;;;10.70;99.90;;;;;;5139185;27;20067;-87
2021/01/20 07:44:48;;;;;;;6.32;4.35;;;10.70;99.90;;;;;;5154847;27;20059;-87
2021/01/20 07:47:17;;;;;;;9.25;4.18;;;10.80;99.90;;;;;;5139705;27;20369;-87
2021/01/20 07:49:56;;;;;;;8.07;4.62;;;10.80;99.90;;;;;;5137763;27;20058;-88
2021/01/20 07:52:24;;;;;;;9.20;4.95;;;10.80;99.90;;;;;;5141024;27;20035;-86
2021/01/20 07:54:52;;;;;;;7.55;4.47;;;10.80;99.90;;;;;;5139836;27;20056;-88
2021/01/20 07:57:21;;;;;;;6.62;4.32;;;10.90;99.90;;;;;;5142239;27;20046;-88
2021/01/20 08:00:02;;;;;;;5.57;4.28;;;11.00;99.90;;;;;;5140959;27;20038;-87
2021/01/20 08:02:47;;;;;;;7.03;4.10;;;11.30;99.90;;;;;;5141341;27;20103;-86
2021/01/20 08:05:15;;;;;;;9.15;4.65;;;11.60;99.90;;;;;;5142586;27;20407;-86
2021/01/20 08:07:44;;;;;;;7.30;5.00;;;11.90;99.90;;;;;;5143944;27;20025;-87
2021/01/20 08:10:19;;;;;;;6.85;4.20;;;12.30;99.90;;;;;;5142517;27;20027;-87
2021/01/20 08:12:50;;;;;;;7.50;4.45;;;12.80;99.90;;;;;;5140570;27;20031;-88
2021/01/20 08:15:20;;;;;;;5.25;4.35;;;13.30;99.90;;;;;;5137579;27;20044;-88
2021/01/20 08:17:48;;;;;;;7.55;4.47;;;14.00;99.90;;;;;;5136788;27;20039;-88
2021/01/20 08:20:16;;;;;;;6.57;3.78;;;15.00;99.90;;;;;;5138191;27;20451;-88
2021/01/20 08:22:48;;;;;;;3.95;3.55;;;16.30;99.90;;;;;;5136678;27;20106;-88
2021/01/20 08:25:21;;;;;;;6.55;3.78;;;17.60;99.90;;;;;;5159789;27;20078;-88
2021/01/20 08:27:49;;;;;;;3.83;3.45;;;18.70;99.90;;;;;;5165587;27;20130;-88
2021/01/20 08:30:34;;;;;;;5.30;3.05;;;20.00;99.70;;;;;;5168659;27;20457;-89
2021/01/20 08:33:03;;;;;;;5.22;2.83;;;21.10;94.50;;;;;;5168347;27;20027;-89
2021/01/20 08:35:34;;;;;;;4.68;2.05;;;22.10;91.50;;;;;;5146690;27;20415;-87
2021/01/20 08:38:03;;;;;;;5.37;2.67;;;23.30;87.50;;;;;;5165901;27;20015;-87
2021/01/20 08:40:33;;;;;;;5.22;2.30;;;23.90;81.30;;;;;;5165887;27;20043;-87
2021/01/20 08:43:01;;;;;;;2.55;2.22;;;24.90;75.30;;;;;;5166866;27;20031;-86
2021/01/20 08:45:44;;;;;;;2.47;1.85;;;25.90;70.20;;;;;;5150310;27;20073;-87
2021/01/20 08:48:13;;;;;;;4.30;2.40;;;27.00;66.60;;;;;;5166096;27;20042;-88
2021/01/20 08:50:43;;;;;;;3.08;2.10;;;27.40;60.50;;;;;;5168085;27;20954;-88
2021/01/20 08:53:24;;;;;;;3.08;1.50;;;28.30;57.20;;;;;;5147712;27;20039;-87
2021/01/20 08:55:54;;;;;;;2.65;1.23;;;28.30;62.00;;;;;;5146664;27;20311;-88
2021/01/20 08:58:34;;;;;;;3.35;1.98;;;26.20;60.60;;;;;;5169304;27;20015;-88
2021/01/20 09:01:11;;;;;;;2.40;1.60;;;27.20;60.40;;;;;;5148873;27;20030;-88
2021/01/20 09:03:40;;;;;;;2.80;1.52;;;28.80;58.20;;;;;;5149951;27;20106;-88
2021/01/20 09:06:16;;;;;;;4.30;1.85;;;29.90;53.20;;;;;;5149278;27;20047;-88
2021/01/20 09:08:44;;;;;;;3.42;1.77;;;31.10;49.70;;;;;;5149896;27;20403;-88
2021/01/20 09:11:15;;;;;;;3.95;1.77;;;31.90;47.70;;;;;;5166640;27;20048;-88
2021/01/20 09:13:49;;;;;;;2.92;1.70;;;32.90;45.00;;;;;;5168586;27;20031;-88
2021/01/20 09:16:29;;;;;;;1.83;1.60;;;33.30;42.50;;;;;;5166823;27;20281;-88
2021/01/20 09:18:58;;;;;;;3.85;1.85;;;34.00;40.50;;;;;;5144834;27;20031;-88
2021/01/20 09:21:27;;;;;;;4.87;1.80;;;34.50;38.80;;;;;;5145511;27;20078;-89
2021/01/20 09:23:55;;;;;;;5.68;1.85;;;35.00;38.80;;;;;;5166127;27;20095;-89
2021/01/20 09:26:23;;;;;;;8.38;2.75;;;35.30;36.60;;;;;;5167229;27;20079;-89
2021/01/20 09:28:51;;;;;;;6.90;3.10;;;35.40;35.30;;;;;;5164808;27;20031;-89
2021/01/20 09:31:19;;;;;;;8.25;2.65;;;35.60;33.90;;;;;;5165244;27;20067;-89
2021/01/20 09:33:47;;;;;;;10.85;2.97;;;36.00;33.70;;;;;;5166806;27;20035;-89
2021/01/20 09:36:16;;;;;;;10.52;3.03;;;36.10;32.50;;;;;;5146709;27;20399;-90
2021/01/20 09:38:44;;;;;;;5.28;2.50;;;36.30;32.30;;;;;;5166607;27;20062;-89
2021/01/20 09:41:12;;;;;;;3.40;2.05;;;36.50;31.10;;;;;;5165233;27;20082;-89
2021/01/20 09:43:40;;;;;;;5.28;2.20;;;36.70;30.90;;;;;;5132558;27;20032;-89
2021/01/20 09:46:08;;;;;;;3.05;1.80;;;36.20;31.10;;;;;;5166752;27;20370;-89
2021/01/20 09:48:36;;;;;;;5.30;2.40;;;37.10;30.20;;;;;;5161637;27;20039;-89
2021/01/20 09:51:04;;;;;;;6.90;2.62;;;37.60;29.40;;;;;;5147360;27;20047;-88
2021/01/20 09:53:32;;;;;;;4.62;2.30;;;38.10;29.10;;;;;;5147774;27;20035;-89
2021/01/20 09:56:01;;;;;;;4.62;2.30;;;38.40;28.80;;;;;;5147124;27;20250;-89
2021/01/20 09:58:29;;;;;;;4.30;2.10;;;38.40;28.30;;;;;;5168016;27;20063;-89
2021/01/20 10:00:58;;;;;;;5.47;2.20;;;38.70;27.30;;;;;;5166990;27;20406;-89
2021/01/20 10:03:26;;;;;;;4.10;2.10;;;38.90;26.20;;;;;;5165858;27;20046;-89
2021/01/20 10:05:54;;;;;;;3.47;1.70;;;39.10;25.80;;;;;;5167900;27;20028;-89
2021/01/20 10:08:22;;;;;;;3.20;1.77;;;39.00;26.00;;;;;;5144946;27;20460;-89
2021/01/20 10:10:51;;;;;;;2.33;1.67;;;39.50;26.10;;;;;;5167663;27;20103;-88
2021/01/20 10:13:21;;;;;;;1.90;1.50;;;39.80;21.10;;;;;;5149335;27;20558;-89
2021/01/20 10:15:50;;;;;;;2.65;1.80;;;39.50;20.90;;;;;;5163234;27;20065;-89
2021/01/20 10:18:18;;;;;;;1.92;1.60;;;39.70;21.30;;;;;;5163092;27;20050;-88
2021/01/20 10:20:50;;;;;;;2.67;1.80;;;39.00;21.00;;;;;;5166475;27;20066;-89
2021/01/20 10:23:18;;;;;;;3.12;1.60;;;39.40;20.40;;;;;;5131136;27;20020;-89
2021/01/20 10:25:46;;;;;;;1.60;1.50;;;39.80;20.30;;;;;;5148073;27;20411;-89
2021/01/20 10:28:14;;;;;;;2.58;1.70;;;40.20;19.90;;;;;;5166554;27;20035;-89
2021/01/20 10:30:43;;;;;;;1.85;1.45;;;40.20;19.70;;;;;;5167636;27;20036;-89
2021/01/20 10:33:11;;;;;;;1.50;1.37;;;40.70;19.50;;;;;;5168009;27;20016;-89
2021/01/20 10:35:40;;;;;;;1.70;1.40;;;40.90;18.70;;;;;;5165699;27;20321;-89
2021/01/20 10:38:08;;;;;;;3.17;1.60;;;40.70;18.40;;;;;;5165387;27;20370;-89
2021/01/20 10:40:36;;;;;;;2.10;1.33;;;40.90;18.50;;;;;;5168857;27;20031;-89
2021/01/20 10:43:04;;;;;;;3.47;1.60;;;40.60;18.60;;;;;;5168271;27;20040;-89
2021/01/20 10:45:33;;;;;;;3.00;1.45;;;40.80;18.20;;;;;;5167579;27;20039;-89
2021/01/20 10:48:11;;;;;;;2.78;1.50;;;41.00;18.00;;;;;;5165275;27;20015;-89
2021/01/20 10:50:39;;;;;;;2.72;1.60;;;41.10;17.80;;;;;;5165221;27;20069;-89
2021/01/20 10:53:07;;;;;;;1.98;1.40;;;40.90;17.60;;;;;;5166041;27;20464;-89
2021/01/20 10:55:36;;;;;;;5.43;1.60;;;41.20;17.30;;;;;;5165126;27;20094;-89
2021/01/20 10:58:04;;;;;;;3.78;1.42;;;40.70;17.20;;;;;;5165638;27;20042;-89
2021/01/20 11:00:33;;;;;;;3.62;1.45;;;40.50;17.50;;;;;;5165140;27;20074;-88
2021/01/20 11:03:01;;;;;;;2.60;1.50;;;40.30;17.80;;;;;;5147356;27;20050;-88
2021/01/20 11:05:29;;;;;;;4.50;1.60;;;40.90;17.40;;;;;;5147531;27;20155;-89
2021/01/20 11:07:57;;;;;;;3.78;1.40;;;40.80;17.40;;;;;;5164833;27;20041;-89
2021/01/20 11:10:25;;;;;;;2.12;1.30;;;40.30;17.10;;;;;;5148743;27;20035;-89
2021/01/20 11:12:54;;;;;;;2.92;1.50;;;39.60;17.60;;;;;;5167713;27;20091;-89
2021/01/20 11:15:22;;;;;;;2.10;1.50;;;40.20;17.10;;;;;;5167840;27;20028;-89
2021/01/20 11:17:50;;;;;;;5.87;1.60;;;40.30;17.20;;;;;;5166857;27;20061;-89
2021/01/20 11:20:19;;;;;;;2.65;1.70;;;40.40;17.30;;;;;;5166005;27;20073;-88
2021/01/20 11:22:47;;;;;;;1.73;1.40;;;40.50;16.70;;;;;;5165789;27;20032;-89
2021/01/20 11:25:16;;;;;;;2.40;1.48;;;40.50;17.50;;;;;;5166967;27;20053;-88
2021/01/20 11:27:45;;;;;;;2.80;1.40;;;40.70;16.80;;;;;;5164703;27;20038;-88
2021/01/20 11:30:14;;;;;;;2.15;1.45;;;41.00;16.70;;;;;;5168279;27;20038;-88
2021/01/20 11:32:42;;;;;;;1.77;1.35;;;41.00;16.80;;;;;;5167180;27;20062;-88
2021/01/20 11:35:13;;;;;;;1.87;1.30;;;39.90;16.80;;;;;;5164308;27;20364;-88
2021/01/20 11:37:42;;;;;;;4.93;1.40;;;40.20;17.00;;;;;;5169190;27;20091;-89
2021/01/20 11:40:10;;;;;;;3.58;1.40;;;40.20;17.10;;;;;;5148551;27;20039;-88
2021/01/20 11:42:39;;;;;;;2.45;1.40;;;40.20;17.10;;;;;;5167137;27;20104;-89
2021/01/20 11:45:08;;;;;;;2.78;1.15;;;40.60;16.90;;;;;;5146963;27;20739;-88
2021/01/20 11:47:37;;;;;;;2.85;1.30;;;40.50;16.60;;;;;;5167634;27;20042;-88
2021/01/20 11:50:06;;;;;;;2.08;1.37;;;40.60;16.40;;;;;;5166305;27;20049;-88
2021/01/20 11:52:34;;;;;;;3.40;1.80;;;39.90;16.30;;;;;;5147502;27;20343;-88
2021/01/20 11:55:03;;;;;;;3.00;1.65;;;38.30;17.00;;;;;;5165434;27;20027;-88
2021/01/20 11:57:32;;;;;;;2.58;1.40;;;38.60;17.80;;;;;;5163338;27;20373;-89
2021/01/20 12:00:00;;;;;;;2.53;1.50;;;39.00;17.70;;;;;;5149714;27;20374;-88
2021/01/20 12:02:39;;;;;;;6.12;1.80;;;38.70;17.30;;;;;;5166657;27;20062;-88
2021/01/20 12:05:11;;;;;;;3.67;1.85;;;37.80;18.10;;;;;;5166907;27;20135;-88
2021/01/20 12:07:40;;;;;;;3.12;1.50;;;37.80;18.30;;;;;;5143087;27;20472;-88
2021/01/20 12:10:10;;;;;;;2.08;1.70;;;34.90;19.50;;;;;;5161068;27;20109;-89
2021/01/20 12:12:38;;;;;;;3.80;1.92;;;34.20;20.30;;;;;;5165977;27;20044;-88
2021/01/20 12:15:07;;;;;;;6.47;1.98;;;34.30;20.70;;;;;;5167630;27;20027;-88
2021/01/20 12:17:37;;;;;;;4.97;2.20;;;33.60;21.30;;;;;;5169405;27;20037;-88
2021/01/20 12:20:07;;;;;;;2.47;1.80;;;33.60;21.40;;;;;;5166452;27;20023;-88
2021/01/20 12:22:35;;;;;;;4.93;2.08;;;33.90;21.10;;;;;;5165901;27;20051;-88
2021/01/20 12:25:05;;;;;;;3.67;1.98;;;33.30;21.30;;;;;;5167050;27;20031;-88
2021/01/20 12:27:33;;;;;;;2.62;1.75;;;32.00;22.40;;;;;;5147219;27;20038;-88
2021/01/20 12:30:01;;;;;;;4.10;2.03;;;32.70;22.30;;;;;;5167014;27;20036;-88
2021/01/20 12:32:30;;;;;;;8.25;1.90;;;33.90;21.70;;;;;;5164476;27;20032;-88
2021/01/20 12:34:58;;;;;;;4.22;1.90;;;34.40;21.10;;;;;;5168925;27;20082;-87
2021/01/20 12:37:26;;;;;;;3.25;2.00;;;34.10;21.30;;;;;;5167524;27;20039;-87
2021/01/20 12:39:55;;;;;;;3.42;2.00;;;32.50;22.10;;;;;;5146444;27;20073;-87
2021/01/20 12:42:23;;;;;;;2.35;1.70;;;31.60;22.80;;;;;;5166566;27;20027;-87
2021/01/20 12:44:52;;;;;;;6.43;1.92;;;33.00;22.60;;;;;;5168540;27;20050;-87
2021/01/20 12:47:22;;;;;;;4.60;1.80;;;32.70;22.80;;;;;;5165654;27;20049;-87
2021/01/20 12:49:50;;;;;;;3.60;1.73;;;31.50;23.40;;;;;;5168198;27;20027;-87
2021/01/20 12:52:18;;;;;;;7.00;2.03;;;29.90;26.10;;;;;;5165816;27;20074;-86
2021/01/20 12:54:47;;;;;;;6.18;1.83;;;28.30;28.30;;;;;;5168775;27;20019;-87
2021/01/20 12:57:15;;;;;;;3.40;1.90;;;27.40;29.90;;;;;;5167776;27;20051;-87
2021/01/20 12:59:43;;;;;;;5.43;1.92;;;25.80;33.10;;;;;;5167912;27;20031;-86
2021/01/20 13:02:11;;;;;;;4.65;1.90;;;25.20;35.70;;;;;;5169059;27;20038;-86
2021/01/20 13:04:39;;;;;;;6.07;2.00;;;24.40;38.20;;;;;;5165245;27;20062;-87